sensor_id;sensor_type;location;lat;lon;timestamp;pressure;altitude;pressure_sealevel;temperature;humidity
77881;BME280;67077;50.298;18.996;2023-06-10T00:01:40;97694.40;;;15.50;88.65
77881;BME280;67077;50.298;18.996;2023-06-10T00:04:07;97694.63;;;15.51;88.50
77881;BME280;67077;50.298;18.996;2023-06-10T00:06:34;97695.88;;;15.51;88.43
77881;BME280;67077;50.298;18.996;2023-06-10T00:09:04;97698.55;;;15.51;88.28
77881;BME280;67077;50.298;18.996;2023-06-10T00:11:32;97695.20;;;15.49;88.38
77881;BME280;67077;50.298;18.996;2023-06-10T00:13:59;97697.70;;;15.48;88.30
77881;BME280;67077;50.298;18.996;2023-06-10T00:16:26;97700.22;;;15.45;88.29
77881;BME280;67077;50.298;18.996;2023-06-10T00:18:53;97701.02;;;15.42;88.53
77881;BME280;67077;50.298;18.996;2023-06-10T00:21:22;97698.73;;;15.41;88.61
77881;BME280;67077;50.298;18.996;2023-06-10T00:23:50;97696.32;;;15.40;88.59
77881;BME280;67077;50.298;18.996;2023-06-10T00:26:17;97705.24;;;15.39;88.68
77881;BME280;67077;50.298;18.996;2023-06-10T00:28:44;97706.42;;;15.36;88.68
77881;BME280;67077;50.298;18.996;2023-06-10T00:31:11;97700.25;;;15.33;88.70
77881;BME280;67077;50.298;18.996;2023-06-10T00:33:38;97701.44;;;15.29;88.83
77881;BME280;67077;50.298;18.996;2023-06-10T00:36:04;97702.35;;;15.27;88.94
77881;BME280;67077;50.298;18.996;2023-06-10T00:38:31;97704.73;;;15.26;89.07
77881;BME280;67077;50.298;18.996;2023-06-10T00:40:58;97711.66;;;15.26;89.08
77881;BME280;67077;50.298;18.996;2023-06-10T00:43:24;97715.68;;;15.26;89.17
77881;BME280;67077;50.298;18.996;2023-06-10T00:45:51;97718.08;;;15.24;89.22
77881;BME280;67077;50.298;18.996;2023-06-10T00:48:18;97719.90;;;15.21;89.45
77881;BME280;67077;50.298;18.996;2023-06-10T00:50:46;97717.65;;;15.18;89.44
77881;BME280;67077;50.298;18.996;2023-06-10T00:53:13;97712.24;;;15.17;89.53
77881;BME280;67077;50.298;18.996;2023-06-10T00:55:41;97721.23;;;15.18;89.50
77881;BME280;67077;50.298;18.996;2023-06-10T00:58:08;97720.67;;;15.17;89.58
77881;BME280;67077;50.298;18.996;2023-06-10T01:00:35;97722.05;;;15.18;89.61
77881;BME280;67077;50.298;18.996;2023-06-10T01:03:02;97724.08;;;15.17;89.66
77881;BME280;67077;50.298;18.996;2023-06-10T01:05:35;97723.14;;;15.14;89.67
77881;BME280;67077;50.298;18.996;2023-06-10T01:11:00;97725.34;;;15.11;90.03
77881;BME280;67077;50.298;18.996;2023-06-10T01:13:29;97722.23;;;15.12;90.09
77881;BME280;67077;50.298;18.996;2023-06-10T01:15:56;97722.79;;;15.11;90.12
77881;BME280;67077;50.298;18.996;2023-06-10T01:18:23;97722.19;;;15.12;90.16
77881;BME280;67077;50.298;18.996;2023-06-10T01:20:49;97720.66;;;15.11;90.03
77881;BME280;67077;50.298;18.996;2023-06-10T01:23:16;97716.94;;;15.08;90.14
77881;BME280;67077;50.298;18.996;2023-06-10T01:25:51;97714.98;;;15.09;90.35
77881;BME280;67077;50.298;18.996;2023-06-10T01:31:15;97717.77;;;15.11;90.47
77881;BME280;67077;50.298;18.996;2023-06-10T01:33:45;97718.45;;;15.13;90.25
77881;BME280;67077;50.298;18.996;2023-06-10T01:36:15;97715.79;;;15.14;90.20
77881;BME280;67077;50.298;18.996;2023-06-10T01:38:45;97717.04;;;15.13;90.28
77881;BME280;67077;50.298;18.996;2023-06-10T01:41:13;97713.92;;;15.13;90.42
77881;BME280;67077;50.298;18.996;2023-06-10T01:43:43;97716.94;;;15.15;90.43
77881;BME280;67077;50.298;18.996;2023-06-10T01:46:10;97713.86;;;15.16;90.43
77881;BME280;67077;50.298;18.996;2023-06-10T01:48:38;97721.67;;;15.18;90.54
77881;BME280;67077;50.298;18.996;2023-06-10T01:51:05;97719.44;;;15.17;90.35
77881;BME280;67077;50.298;18.996;2023-06-10T01:53:31;97716.67;;;15.15;90.42
77881;BME280;67077;50.298;18.996;2023-06-10T01:55:58;97721.84;;;15.15;90.48
77881;BME280;67077;50.298;18.996;2023-06-10T01:58:24;97723.09;;;15.15;90.38
77881;BME280;67077;50.298;18.996;2023-06-10T02:00:51;97726.52;;;15.15;90.51
77881;BME280;67077;50.298;18.996;2023-06-10T02:03:17;97727.89;;;15.16;90.50
77881;BME280;67077;50.298;18.996;2023-06-10T02:05:44;97733.65;;;15.16;90.41
77881;BME280;67077;50.298;18.996;2023-06-10T02:08:11;97740.29;;;15.15;90.51
77881;BME280;67077;50.298;18.996;2023-06-10T02:10:37;97743.02;;;15.13;90.52
77881;BME280;67077;50.298;18.996;2023-06-10T02:13:04;97741.98;;;15.14;90.59
77881;BME280;67077;50.298;18.996;2023-06-10T02:15:31;97745.06;;;15.16;90.79
77881;BME280;67077;50.298;18.996;2023-06-10T02:17:57;97740.35;;;15.18;90.84
77881;BME280;67077;50.298;18.996;2023-06-10T02:20:24;97742.02;;;15.21;90.76
77881;BME280;67077;50.298;18.996;2023-06-10T02:22:50;97741.16;;;15.23;90.84
77881;BME280;67077;50.298;18.996;2023-06-10T02:25:17;97742.06;;;15.22;90.58
77881;BME280;67077;50.298;18.996;2023-06-10T02:27:43;97743.27;;;15.21;90.65
77881;BME280;67077;50.298;18.996;2023-06-10T02:30:10;97743.26;;;15.20;90.67
77881;BME280;67077;50.298;18.996;2023-06-10T02:32:37;97745.27;;;15.20;90.58
77881;BME280;67077;50.298;18.996;2023-06-10T02:35:03;97741.14;;;15.22;90.53
77881;BME280;67077;50.298;18.996;2023-06-10T02:37:30;97741.15;;;15.23;90.67
77881;BME280;67077;50.298;18.996;2023-06-10T02:39:56;97741.96;;;15.22;90.78
77881;BME280;67077;50.298;18.996;2023-06-10T02:42:23;97741.02;;;15.20;90.87
77881;BME280;67077;50.298;18.996;2023-06-10T02:44:49;97744.71;;;15.19;90.74
77881;BME280;67077;50.298;18.996;2023-06-10T02:47:16;97746.04;;;15.21;90.78
77881;BME280;67077;50.298;18.996;2023-06-10T02:49:42;97745.16;;;15.20;90.78
77881;BME280;67077;50.298;18.996;2023-06-10T02:52:09;97745.90;;;15.18;90.92
77881;BME280;67077;50.298;18.996;2023-06-10T02:54:37;97748.20;;;15.16;90.94
77881;BME280;67077;50.298;18.996;2023-06-10T02:57:04;97749.84;;;15.16;91.07
77881;BME280;67077;50.298;18.996;2023-06-10T02:59:32;97749.10;;;15.17;91.10
77881;BME280;67077;50.298;18.996;2023-06-10T03:01:58;97744.89;;;15.20;91.07
77881;BME280;67077;50.298;18.996;2023-06-10T03:04:27;97746.42;;;15.20;90.98
77881;BME280;67077;50.298;18.996;2023-06-10T03:06:55;97748.36;;;15.18;91.07
77881;BME280;67077;50.298;18.996;2023-06-10T03:09:21;97754.79;;;15.18;91.01
77881;BME280;67077;50.298;18.996;2023-06-10T03:11:48;97755.39;;;15.18;91.02
77881;BME280;67077;50.298;18.996;2023-06-10T03:14:14;97753.77;;;15.21;91.01
77881;BME280;67077;50.298;18.996;2023-06-10T03:16:41;97753.74;;;15.25;91.08
77881;BME280;67077;50.298;18.996;2023-06-10T03:19:08;97749.41;;;15.28;91.10
77881;BME280;67077;50.298;18.996;2023-06-10T03:21:35;97753.45;;;15.30;90.84
77881;BME280;67077;50.298;18.996;2023-06-10T03:24:04;97761.27;;;15.31;90.84
77881;BME280;67077;50.298;18.996;2023-06-10T03:26:30;97766.45;;;15.36;90.90
77881;BME280;67077;50.298;18.996;2023-06-10T03:28:57;97765.89;;;15.41;90.94
77881;BME280;67077;50.298;18.996;2023-06-10T03:31:23;97767.95;;;15.46;90.65
77881;BME280;67077;50.298;18.996;2023-06-10T03:33:51;97768.45;;;15.49;90.72
77881;BME280;67077;50.298;18.996;2023-06-10T03:36:17;97771.87;;;15.51;90.64
77881;BME280;67077;50.298;18.996;2023-06-10T03:38:43;97771.29;;;15.52;90.52
77881;BME280;67077;50.298;18.996;2023-06-10T03:41:10;97774.35;;;15.54;90.33
77881;BME280;67077;50.298;18.996;2023-06-10T03:43:37;97778.75;;;15.59;90.23
77881;BME280;67077;50.298;18.996;2023-06-10T03:46:06;97781.33;;;15.63;90.21
77881;BME280;67077;50.298;18.996;2023-06-10T03:48:33;97779.85;;;15.69;90.07
77881;BME280;67077;50.298;18.996;2023-06-10T03:51:00;97779.61;;;15.73;89.79
77881;BME280;67077;50.298;18.996;2023-06-10T03:53:27;97779.33;;;15.78;89.67
77881;BME280;67077;50.298;18.996;2023-06-10T03:55:53;97784.66;;;15.83;89.32
77881;BME280;67077;50.298;18.996;2023-06-10T03:58:20;97783.60;;;15.88;89.05
77881;BME280;67077;50.298;18.996;2023-06-10T04:00:46;97788.69;;;15.91;88.63
77881;BME280;67077;50.298;18.996;2023-06-10T04:03:13;97787.55;;;15.91;88.41
77881;BME280;67077;50.298;18.996;2023-06-10T04:05:41;97786.61;;;15.90;88.24
77881;BME280;67077;50.298;18.996;2023-06-10T04:08:08;97782.26;;;15.91;88.11
77881;BME280;67077;50.298;18.996;2023-06-10T04:10:34;97780.69;;;15.92;87.92
77881;BME280;67077;50.298;18.996;2023-06-10T04:13:01;97784.50;;;15.92;87.78
77881;BME280;67077;50.298;18.996;2023-06-10T04:15:29;97791.57;;;15.89;87.54
77881;BME280;67077;50.298;18.996;2023-06-10T04:17:58;97786.91;;;15.87;87.30
77881;BME280;67077;50.298;18.996;2023-06-10T04:20:26;97785.55;;;15.87;87.46
77881;BME280;67077;50.298;18.996;2023-06-10T04:22:53;97790.05;;;15.91;87.26
77881;BME280;67077;50.298;18.996;2023-06-10T04:25:20;97792.67;;;15.96;87.14
77881;BME280;67077;50.298;18.996;2023-06-10T04:27:46;97794.05;;;15.99;86.96
77881;BME280;67077;50.298;18.996;2023-06-10T04:30:13;97792.55;;;16.02;86.70
77881;BME280;67077;50.298;18.996;2023-06-10T04:32:40;97793.65;;;16.04;86.61
77881;BME280;67077;50.298;18.996;2023-06-10T04:35:07;97796.12;;;16.07;86.42
77881;BME280;67077;50.298;18.996;2023-06-10T04:37:33;97794.48;;;16.12;86.35
77881;BME280;67077;50.298;18.996;2023-06-10T04:40:00;97794.56;;;16.17;86.24
77881;BME280;67077;50.298;18.996;2023-06-10T04:42:26;97791.94;;;16.16;85.95
77881;BME280;67077;50.298;18.996;2023-06-10T04:44:53;97785.77;;;16.16;86.08
77881;BME280;67077;50.298;18.996;2023-06-10T04:47:19;97789.23;;;16.18;86.05
77881;BME280;67077;50.298;18.996;2023-06-10T04:49:46;97785.91;;;16.21;85.98
77881;BME280;67077;50.298;18.996;2023-06-10T04:52:13;97785.32;;;16.23;85.76
77881;BME280;67077;50.298;18.996;2023-06-10T04:54:40;97786.27;;;16.23;85.74
77881;BME280;67077;50.298;18.996;2023-06-10T04:57:06;97790.15;;;16.24;85.69
77881;BME280;67077;50.298;18.996;2023-06-10T04:59:34;97788.97;;;16.27;85.62
77881;BME280;67077;50.298;18.996;2023-06-10T05:02:05;97788.44;;;16.30;85.46
77881;BME280;67077;50.298;18.996;2023-06-10T05:04:31;97790.20;;;16.33;85.48
77881;BME280;67077;50.298;18.996;2023-06-10T05:06:58;97793.48;;;16.35;85.51
77881;BME280;67077;50.298;18.996;2023-06-10T05:09:24;97792.82;;;16.34;85.36
77881;BME280;67077;50.298;18.996;2023-06-10T05:11:52;97794.94;;;16.33;85.54
77881;BME280;67077;50.298;18.996;2023-06-10T05:14:19;97796.69;;;16.34;85.56
77881;BME280;67077;50.298;18.996;2023-06-10T05:16:48;97798.23;;;16.35;85.55
77881;BME280;67077;50.298;18.996;2023-06-10T05:19:14;97797.71;;;16.39;85.62
77881;BME280;67077;50.298;18.996;2023-06-10T05:21:43;97800.25;;;16.51;85.29
77881;BME280;67077;50.298;18.996;2023-06-10T05:24:11;97797.41;;;16.62;85.04
77881;BME280;67077;50.298;18.996;2023-06-10T05:26:37;97801.06;;;16.63;84.55
77881;BME280;67077;50.298;18.996;2023-06-10T05:29:05;97797.19;;;16.63;84.71
77881;BME280;67077;50.298;18.996;2023-06-10T05:31:31;97802.59;;;16.63;84.61
77881;BME280;67077;50.298;18.996;2023-06-10T05:33:58;97803.50;;;16.66;84.57
77881;BME280;67077;50.298;18.996;2023-06-10T05:36:24;97807.36;;;16.68;84.48
77881;BME280;67077;50.298;18.996;2023-06-10T05:38:54;97807.42;;;16.70;84.20
77881;BME280;67077;50.298;18.996;2023-06-10T05:41:20;97807.59;;;16.71;84.20
77881;BME280;67077;50.298;18.996;2023-06-10T05:43:48;97814.27;;;16.76;84.46
77881;BME280;67077;50.298;18.996;2023-06-10T05:46:15;97816.66;;;16.84;84.44
77881;BME280;67077;50.298;18.996;2023-06-10T05:48:41;97819.02;;;16.88;84.16
77881;BME280;67077;50.298;18.996;2023-06-10T05:51:08;97820.02;;;16.90;84.05
77881;BME280;67077;50.298;18.996;2023-06-10T05:53:34;97822.60;;;16.93;84.03
77881;BME280;67077;50.298;18.996;2023-06-10T05:56:01;97822.49;;;16.98;83.91
77881;BME280;67077;50.298;18.996;2023-06-10T05:58:27;97818.94;;;17.06;83.66
77881;BME280;67077;50.298;18.996;2023-06-10T06:00:54;97820.17;;;17.18;83.31
77881;BME280;67077;50.298;18.996;2023-06-10T06:03:20;97822.50;;;17.27;82.61
77881;BME280;67077;50.298;18.996;2023-06-10T06:05:47;97825.21;;;17.34;82.26
77881;BME280;67077;50.298;18.996;2023-06-10T06:08:13;97824.45;;;17.42;82.20
77881;BME280;67077;50.298;18.996;2023-06-10T06:10:40;97827.38;;;17.48;81.45
77881;BME280;67077;50.298;18.996;2023-06-10T06:13:06;97822.02;;;17.47;81.26
77881;BME280;67077;50.298;18.996;2023-06-10T06:15:33;97828.14;;;17.47;81.29
77881;BME280;67077;50.298;18.996;2023-06-10T06:17:59;97830.54;;;17.46;81.23
77881;BME280;67077;50.298;18.996;2023-06-10T06:20:26;97829.81;;;17.44;80.71
77881;BME280;67077;50.298;18.996;2023-06-10T06:22:52;97833.80;;;17.38;80.26
77881;BME280;67077;50.298;18.996;2023-06-10T06:25:19;97835.20;;;17.32;80.57
77881;BME280;67077;50.298;18.996;2023-06-10T06:27:46;97836.43;;;17.28;80.74
77881;BME280;67077;50.298;18.996;2023-06-10T06:30:12;97838.52;;;17.31;80.65
77881;BME280;67077;50.298;18.996;2023-06-10T06:32:39;97841.49;;;17.39;80.75
77881;BME280;67077;50.298;18.996;2023-06-10T06:35:06;97842.08;;;17.48;80.66
77881;BME280;67077;50.298;18.996;2023-06-10T06:37:35;97852.14;;;17.57;80.21
77881;BME280;67077;50.298;18.996;2023-06-10T06:40:02;97855.16;;;17.61;79.31
77881;BME280;67077;50.298;18.996;2023-06-10T06:42:29;97855.78;;;17.63;79.23
77881;BME280;67077;50.298;18.996;2023-06-10T06:44:56;97856.98;;;17.63;79.04
77881;BME280;67077;50.298;18.996;2023-06-10T06:47:23;97863.35;;;17.58;78.92
77881;BME280;67077;50.298;18.996;2023-06-10T06:49:50;97861.27;;;17.56;79.30
77881;BME280;67077;50.298;18.996;2023-06-10T06:52:16;97861.27;;;17.57;79.81
77881;BME280;67077;50.298;18.996;2023-06-10T06:54:43;97868.48;;;17.57;80.23
77881;BME280;67077;50.298;18.996;2023-06-10T06:57:09;97867.01;;;17.55;80.28
77881;BME280;67077;50.298;18.996;2023-06-10T06:59:36;97871.23;;;17.56;80.65
77881;BME280;67077;50.298;18.996;2023-06-10T07:02:03;97867.55;;;17.58;80.79
77881;BME280;67077;50.298;18.996;2023-06-10T07:04:30;97870.84;;;17.56;80.52
77881;BME280;67077;50.298;18.996;2023-06-10T07:06:57;97873.23;;;17.50;80.72
77881;BME280;67077;50.298;18.996;2023-06-10T07:09:23;97877.63;;;17.46;80.97
77881;BME280;67077;50.298;18.996;2023-06-10T07:11:50;97877.61;;;17.50;81.19
77881;BME280;67077;50.298;18.996;2023-06-10T07:14:16;97880.77;;;17.54;81.18
77881;BME280;67077;50.298;18.996;2023-06-10T07:16:43;97879.09;;;17.57;81.06
77881;BME280;67077;50.298;18.996;2023-06-10T07:19:11;97880.20;;;17.61;80.90
77881;BME280;67077;50.298;18.996;2023-06-10T07:21:38;97882.58;;;17.68;80.79
77881;BME280;67077;50.298;18.996;2023-06-10T07:24:05;97884.98;;;17.78;80.68
77881;BME280;67077;50.298;18.996;2023-06-10T07:26:32;97888.21;;;17.86;80.17
77881;BME280;67077;50.298;18.996;2023-06-10T07:28:58;97888.70;;;17.87;79.55
77881;BME280;67077;50.298;18.996;2023-06-10T07:31:24;97886.90;;;17.87;79.53
77881;BME280;67077;50.298;18.996;2023-06-10T07:33:51;97888.66;;;17.87;79.57
77881;BME280;67077;50.298;18.996;2023-06-10T07:36:18;97887.11;;;17.89;79.76
77881;BME280;67077;50.298;18.996;2023-06-10T07:38:44;97888.16;;;17.89;79.57
77881;BME280;67077;50.298;18.996;2023-06-10T07:41:11;97886.42;;;17.92;79.98
77881;BME280;67077;50.298;18.996;2023-06-10T07:43:37;97887.91;;;17.98;79.72
77881;BME280;67077;50.298;18.996;2023-06-10T07:46:04;97887.36;;;18.07;79.76
77881;BME280;67077;50.298;18.996;2023-06-10T07:48:31;97888.36;;;18.16;79.03
77881;BME280;67077;50.298;18.996;2023-06-10T07:50:58;97884.42;;;18.17;78.48
77881;BME280;67077;50.298;18.996;2023-06-10T07:53:24;97885.23;;;18.18;78.59
77881;BME280;67077;50.298;18.996;2023-06-10T07:55:51;97888.08;;;18.20;78.34
77881;BME280;67077;50.298;18.996;2023-06-10T07:58:17;97889.52;;;18.24;78.17
77881;BME280;67077;50.298;18.996;2023-06-10T08:00:44;97893.02;;;18.29;78.09
77881;BME280;67077;50.298;18.996;2023-06-10T08:03:10;97893.17;;;18.34;77.96
77881;BME280;67077;50.298;18.996;2023-06-10T08:05:40;97892.64;;;18.42;78.28
77881;BME280;67077;50.298;18.996;2023-06-10T08:08:07;97890.92;;;18.60;77.96
77881;BME280;67077;50.298;18.996;2023-06-10T08:10:34;97891.91;;;18.76;76.57
77881;BME280;67077;50.298;18.996;2023-06-10T08:13:01;97898.25;;;18.82;74.15
77881;BME280;67077;50.298;18.996;2023-06-10T08:15:27;97896.11;;;18.84;74.26
77881;BME280;67077;50.298;18.996;2023-06-10T08:17:56;97900.44;;;18.87;74.10
77881;BME280;67077;50.298;18.996;2023-06-10T08:20:22;97898.52;;;18.91;74.52
77881;BME280;67077;50.298;18.996;2023-06-10T08:22:49;97901.29;;;19.00;74.58
77881;BME280;67077;50.298;18.996;2023-06-10T08:25:16;97904.06;;;19.07;74.02
77881;BME280;67077;50.298;18.996;2023-06-10T08:27:42;97904.58;;;19.04;73.09
77881;BME280;67077;50.298;18.996;2023-06-10T08:30:09;97906.27;;;18.99;73.36
77881;BME280;67077;50.298;18.996;2023-06-10T08:32:37;97906.32;;;19.02;74.04
77881;BME280;67077;50.298;18.996;2023-06-10T08:35:03;97906.73;;;19.10;74.03
77881;BME280;67077;50.298;18.996;2023-06-10T08:37:30;97909.02;;;19.20;74.33
77881;BME280;67077;50.298;18.996;2023-06-10T08:39:57;97910.63;;;19.24;73.63
77881;BME280;67077;50.298;18.996;2023-06-10T08:42:38;97908.45;;;19.23;73.51
77881;BME280;67077;50.298;18.996;2023-06-10T08:45:07;97911.41;;;19.23;73.45
77881;BME280;67077;50.298;18.996;2023-06-10T08:47:39;97910.92;;;19.23;73.34
77881;BME280;67077;50.298;18.996;2023-06-10T08:50:08;97917.80;;;19.27;72.99
77881;BME280;67077;50.298;18.996;2023-06-10T08:52:36;97919.07;;;19.30;72.53
77881;BME280;67077;50.298;18.996;2023-06-10T08:55:15;97921.12;;;19.37;72.74
77881;BME280;67077;50.298;18.996;2023-06-10T08:57:45;97925.41;;;19.44;71.48
77881;BME280;67077;50.298;18.996;2023-06-10T09:00:15;97923.71;;;19.48;70.90
77881;BME280;67077;50.298;18.996;2023-06-10T09:02:43;97928.68;;;19.51;70.45
77881;BME280;67077;50.298;18.996;2023-06-10T09:05:11;97929.66;;;19.58;70.28
77881;BME280;67077;50.298;18.996;2023-06-10T09:07:38;97925.94;;;19.70;70.17
77881;BME280;67077;50.298;18.996;2023-06-10T09:10:05;97932.59;;;19.89;70.20
77881;BME280;67077;50.298;18.996;2023-06-10T09:12:34;97928.83;;;20.03;69.63
77881;BME280;67077;50.298;18.996;2023-06-10T09:15:02;97928.81;;;20.13;69.12
77881;BME280;67077;50.298;18.996;2023-06-10T09:17:29;97926.33;;;20.24;69.24
77881;BME280;67077;50.298;18.996;2023-06-10T09:19:55;97925.54;;;20.43;69.49
77881;BME280;67077;50.298;18.996;2023-06-10T09:22:24;97927.59;;;20.57;68.10
77881;BME280;67077;50.298;18.996;2023-06-10T09:25:07;97921.17;;;20.73;68.41
77881;BME280;67077;50.298;18.996;2023-06-10T09:27:49;97923.55;;;20.96;67.48
77881;BME280;67077;50.298;18.996;2023-06-10T09:30:28;97922.36;;;20.98;66.12
77881;BME280;67077;50.298;18.996;2023-06-10T09:32:57;97925.12;;;20.96;66.62
77881;BME280;67077;50.298;18.996;2023-06-10T09:35:25;97925.41;;;20.97;66.42
77881;BME280;67077;50.298;18.996;2023-06-10T09:37:56;97921.97;;;21.00;66.66
77881;BME280;67077;50.298;18.996;2023-06-10T09:40:24;97924.64;;;21.11;66.84
77881;BME280;67077;50.298;18.996;2023-06-10T09:42:58;97922.33;;;21.22;66.28
77881;BME280;67077;50.298;18.996;2023-06-10T09:45:32;97922.17;;;21.30;66.04
77881;BME280;67077;50.298;18.996;2023-06-10T09:47:59;97923.85;;;21.20;65.28
77881;BME280;67077;50.298;18.996;2023-06-10T09:50:25;97920.63;;;21.11;65.80
77881;BME280;67077;50.298;18.996;2023-06-10T09:52:52;97922.27;;;21.03;64.68
77881;BME280;67077;50.298;18.996;2023-06-10T09:55:19;97914.06;;;20.98;64.74
77881;BME280;67077;50.298;18.996;2023-06-10T09:57:49;97915.77;;;21.04;65.38
77881;BME280;67077;50.298;18.996;2023-06-10T10:00:16;97910.48;;;21.14;65.31
77881;BME280;67077;50.298;18.996;2023-06-10T10:02:48;97918.68;;;21.23;63.01
77881;BME280;67077;50.298;18.996;2023-06-10T10:05:17;97912.36;;;21.25;60.58
77881;BME280;67077;50.298;18.996;2023-06-10T10:07:45;97906.35;;;21.27;60.78
77881;BME280;67077;50.298;18.996;2023-06-10T10:10:13;97911.34;;;21.38;61.40
77881;BME280;67077;50.298;18.996;2023-06-10T10:12:42;97913.30;;;21.53;59.74
77881;BME280;67077;50.298;18.996;2023-06-10T10:15:10;97912.30;;;21.54;59.64
77881;BME280;67077;50.298;18.996;2023-06-10T10:17:46;97920.41;;;21.52;59.15
77881;BME280;67077;50.298;18.996;2023-06-10T10:20:18;97922.58;;;21.51;58.92
77881;BME280;67077;50.298;18.996;2023-06-10T10:22:47;97922.98;;;21.49;58.80
77881;BME280;67077;50.298;18.996;2023-06-10T10:25:23;97923.66;;;21.47;58.79
77881;BME280;67077;50.298;18.996;2023-06-10T10:28:01;97920.70;;;21.41;58.99
77881;BME280;67077;50.298;18.996;2023-06-10T10:30:30;97913.71;;;21.41;59.83
77881;BME280;67077;50.298;18.996;2023-06-10T10:33:05;97903.11;;;21.54;60.12
77881;BME280;67077;50.298;18.996;2023-06-10T10:35:36;97904.81;;;21.67;60.32
77881;BME280;67077;50.298;18.996;2023-06-10T10:38:03;97902.60;;;21.88;59.78
77881;BME280;67077;50.298;18.996;2023-06-10T10:40:31;97899.23;;;22.05;58.37
77881;BME280;67077;50.298;18.996;2023-06-10T10:43:00;97894.77;;;22.18;57.34
77881;BME280;67077;50.298;18.996;2023-06-10T10:45:29;97897.59;;;22.27;58.10
77881;BME280;67077;50.298;18.996;2023-06-10T10:47:56;97895.00;;;22.40;57.81
77881;BME280;67077;50.298;18.996;2023-06-10T10:50:24;97897.49;;;22.49;57.54
77881;BME280;67077;50.298;18.996;2023-06-10T10:53:02;97895.29;;;22.46;56.48
77881;BME280;67077;50.298;18.996;2023-06-10T10:55:29;97895.56;;;22.41;56.39
77881;BME280;67077;50.298;18.996;2023-06-10T10:57:59;97898.23;;;22.34;56.30
77881;BME280;67077;50.298;18.996;2023-06-10T11:00:37;97891.45;;;22.29;57.00
77881;BME280;67077;50.298;18.996;2023-06-10T11:03:12;97882.52;;;22.27;57.14
77881;BME280;67077;50.298;18.996;2023-06-10T11:05:46;97879.42;;;22.33;57.20
77881;BME280;67077;50.298;18.996;2023-06-10T11:11:25;97879.40;;;22.17;56.72
77881;BME280;67077;50.298;18.996;2023-06-10T11:16:42;97880.98;;;22.02;57.72
77881;BME280;67077;50.298;18.996;2023-06-10T11:19:09;97871.70;;;21.97;58.44
77881;BME280;67077;50.298;18.996;2023-06-10T11:22:00;97871.98;;;22.03;58.47
77881;BME280;67077;50.298;18.996;2023-06-10T11:24:29;97863.73;;;22.03;58.38
77881;BME280;67077;50.298;18.996;2023-06-10T11:27:15;97867.67;;;22.11;58.13
77881;BME280;67077;50.298;18.996;2023-06-10T11:30:17;97864.70;;;22.11;57.27
77881;BME280;67077;50.298;18.996;2023-06-10T11:32:51;97862.77;;;22.11;57.40
77881;BME280;67077;50.298;18.996;2023-06-10T11:35:23;97871.53;;;22.06;55.74
77881;BME280;67077;50.298;18.996;2023-06-10T11:37:50;97867.55;;;21.99;55.98
77881;BME280;67077;50.298;18.996;2023-06-10T11:40:16;97871.25;;;21.95;56.28
77881;BME280;67077;50.298;18.996;2023-06-10T11:42:43;97872.27;;;21.93;56.45
77881;BME280;67077;50.298;18.996;2023-06-10T11:45:15;97872.46;;;21.91;55.23
77881;BME280;67077;50.298;18.996;2023-06-10T11:47:58;97870.11;;;21.88;55.93
77881;BME280;67077;50.298;18.996;2023-06-10T11:50:33;97862.38;;;21.92;56.13
77881;BME280;67077;50.298;18.996;2023-06-10T11:53:00;97864.65;;;21.97;56.28
77881;BME280;67077;50.298;18.996;2023-06-10T11:55:40;97857.83;;;22.07;56.00
77881;BME280;67077;50.298;18.996;2023-06-10T11:58:19;97852.13;;;22.12;56.23
77881;BME280;67077;50.298;18.996;2023-06-10T12:00:50;97849.77;;;22.21;56.80
77881;BME280;67077;50.298;18.996;2023-06-10T12:03:17;97849.30;;;22.27;55.90
77881;BME280;67077;50.298;18.996;2023-06-10T12:06:05;97849.19;;;22.30;54.41
77881;BME280;67077;50.298;18.996;2023-06-10T12:08:32;97843.92;;;22.19;54.00
77881;BME280;67077;50.298;18.996;2023-06-10T12:11:00;97860.58;;;22.17;54.10
77881;BME280;67077;50.298;18.996;2023-06-10T12:13:27;97860.74;;;22.17;54.19
77881;BME280;67077;50.298;18.996;2023-06-10T12:15:54;97854.91;;;22.10;54.06
77881;BME280;67077;50.298;18.996;2023-06-10T12:18:24;97854.84;;;22.01;54.76
77881;BME280;67077;50.298;18.996;2023-06-10T12:20:51;97852.37;;;22.10;55.51
77881;BME280;67077;50.298;18.996;2023-06-10T12:23:18;97852.46;;;22.29;55.12
77881;BME280;67077;50.298;18.996;2023-06-10T12:25:55;97846.93;;;22.50;54.55
77881;BME280;67077;50.298;18.996;2023-06-10T12:28:26;97847.94;;;22.76;53.83
77881;BME280;67077;50.298;18.996;2023-06-10T12:31:06;97853.21;;;22.90;52.25
77881;BME280;67077;50.298;18.996;2023-06-10T12:33:36;97847.29;;;22.91;51.48
77881;BME280;67077;50.298;18.996;2023-06-10T12:36:03;97846.15;;;22.91;51.11
77881;BME280;67077;50.298;18.996;2023-06-10T12:38:30;97844.48;;;22.88;51.00
77881;BME280;67077;50.298;18.996;2023-06-10T12:41:03;97839.55;;;22.82;51.17
77881;BME280;67077;50.298;18.996;2023-06-10T12:43:32;97845.80;;;22.86;51.38
77881;BME280;67077;50.298;18.996;2023-06-10T12:46:09;97840.41;;;22.88;50.94
77881;BME280;67077;50.298;18.996;2023-06-10T12:48:36;97846.77;;;22.85;50.72
77881;BME280;67077;50.298;18.996;2023-06-10T12:51:02;97837.98;;;22.86;51.60
77881;BME280;67077;50.298;18.996;2023-06-10T12:53:29;97850.83;;;22.97;51.59
77881;BME280;67077;50.298;18.996;2023-06-10T12:55:55;97844.25;;;22.92;51.50
77881;BME280;67077;50.298;18.996;2023-06-10T12:58:22;97841.34;;;22.82;52.01
77881;BME280;67077;50.298;18.996;2023-06-10T13:00:50;97841.29;;;22.73;51.53
77881;BME280;67077;50.298;18.996;2023-06-10T13:03:19;97840.36;;;22.74;51.86
77881;BME280;67077;50.298;18.996;2023-06-10T13:05:46;97842.77;;;22.85;52.21
77881;BME280;67077;50.298;18.996;2023-06-10T13:08:12;97841.73;;;22.97;51.76